createdAt,value
2023-03-27T00:02:25.182Z,100206.28
2023-03-27T00:04:51.622Z,100208.25
2023-03-27T00:07:17.954Z,100208.03
2023-03-27T00:09:45.629Z,100216.91
2023-03-27T00:12:11.975Z,100221.56
2023-03-27T00:14:38.341Z,100222.88
2023-03-27T00:17:04.853Z,100223.13
2023-03-27T00:19:31.226Z,100243.91
2023-03-27T00:21:57.575Z,100242.75
2023-03-27T00:24:24.015Z,100247.44
2023-03-27T00:26:51.677Z,100254.75
2023-03-27T00:29:18.031Z,100245.91
2023-03-27T00:31:44.406Z,100265.09
2023-03-27T00:34:10.812Z,100264.16
2023-03-27T00:36:37.159Z,100269.72
2023-03-27T00:39:03.898Z,100276.88
2023-03-27T00:41:30.320Z,100279.88
2023-03-27T00:43:58.100Z,100277.66
2023-03-27T00:46:31.036Z,100287.38
2023-03-27T00:49:01.472Z,100294.25
2023-03-27T00:51:28.347Z,100295.66
2023-03-27T00:53:55.955Z,100305.53
2023-03-27T00:56:22.920Z,100308.31
2023-03-27T00:58:52.612Z,100305.56
2023-03-27T01:01:23.180Z,100313.56
2023-03-27T01:03:50.307Z,100314.66
2023-03-27T01:06:17.254Z,100317.66
2023-03-27T01:08:45.166Z,100321.00
2023-03-27T01:11:21.239Z,100323.19
2023-03-27T01:14:01.184Z,100321.53
2023-03-27T01:16:36.025Z,100325.66
2023-03-27T01:19:29.319Z,100330.31
2023-03-27T01:22:19.988Z,100330.56
2023-03-27T01:25:19.125Z,100334.19
2023-03-27T01:28:16.370Z,100338.03
2023-03-27T01:30:50.332Z,100344.66
2023-03-27T01:34:09.179Z,100342.44
2023-03-27T01:36:56.144Z,100350.09
2023-03-27T01:39:31.614Z,100351.72
2023-03-27T01:42:08.739Z,100353.69
2023-03-27T01:44:46.419Z,100349.56
2023-03-27T01:47:21.567Z,100355.72
2023-03-27T01:49:53.933Z,100369.16
2023-03-27T01:52:25.090Z,100359.72
2023-03-27T01:54:55.616Z,100355.16
2023-03-27T01:57:25.598Z,100363.50
2023-03-27T01:59:58.062Z,100368.56
2023-03-27T02:02:48.907Z,100371.31
2023-03-27T02:05:20.849Z,100370.53
2023-03-27T02:07:52.538Z,100377.22
2023-03-27T02:10:25.117Z,100375.97
2023-03-27T02:12:58.399Z,100377.81
2023-03-27T02:15:30.422Z,100379.00
2023-03-27T02:18:00.355Z,100383.84
2023-03-27T02:20:26.777Z,100383.72
2023-03-27T02:22:53.150Z,100395.13
2023-03-27T02:25:27.199Z,100395.50
2023-03-27T02:28:08.113Z,100396.53
2023-03-27T02:30:40.014Z,100408.75
2023-03-27T02:33:12.370Z,100417.19
2023-03-27T02:35:48.336Z,100412.78
2023-03-27T02:38:18.906Z,100424.66
2023-03-27T02:40:55.965Z,100428.16
2023-03-27T02:43:31.047Z,100432.47
2023-03-27T02:46:02.249Z,100422.91
2023-03-27T02:48:32.691Z,100434.31
2023-03-27T02:51:02.745Z,100429.19
2023-03-27T02:53:35.018Z,100426.72
2023-03-27T02:56:04.697Z,100428.34
2023-03-27T02:58:37.189Z,100443.72
2023-03-27T03:01:05.667Z,100443.44
2023-03-27T03:03:38.048Z,100445.28
2023-03-27T03:06:05.512Z,100451.81
2023-03-27T03:08:31.911Z,100447.72
2023-03-27T03:11:04.000Z,100444.50
2023-03-27T03:13:30.700Z,100444.94
2023-03-27T03:15:57.272Z,100453.13
2023-03-27T03:18:23.914Z,100456.66
2023-03-27T03:20:50.402Z,100456.66
2023-03-27T03:23:16.744Z,100465.88
2023-03-27T03:25:43.092Z,100461.19
2023-03-27T03:28:10.779Z,100468.06
2023-03-27T03:30:37.176Z,100468.47
2023-03-27T03:33:03.695Z,100467.13
2023-03-27T03:35:30.128Z,100480.41
2023-03-27T03:37:56.539Z,100476.41
2023-03-27T03:40:22.886Z,100486.81
2023-03-27T03:42:50.742Z,100493.56
2023-03-27T03:45:19.910Z,100498.09
2023-03-27T03:47:46.830Z,100505.34
2023-03-27T03:50:13.760Z,100500.63
2023-03-27T03:52:40.489Z,100505.91
2023-03-27T03:55:09.220Z,100504.34
2023-03-27T03:57:35.691Z,100508.56
2023-03-27T04:00:02.488Z,100502.25
2023-03-27T04:02:30.345Z,100511.97
2023-03-27T04:04:57.633Z,100506.34
2023-03-27T04:07:24.873Z,100512.69
2023-03-27T04:09:51.402Z,100513.06
2023-03-27T04:12:18.206Z,100516.53
2023-03-27T04:14:44.914Z,100519.38
2023-03-27T04:17:11.321Z,100521.69
2023-03-27T04:19:39.038Z,100525.47
2023-03-27T04:22:05.395Z,100537.44
2023-03-27T04:24:31.741Z,100533.84
2023-03-27T04:26:58.811Z,100537.81
2023-03-27T04:29:25.403Z,100543.38
2023-03-27T04:31:51.786Z,100547.81
2023-03-27T04:34:18.224Z,100549.50
2023-03-27T04:36:45.961Z,100561.19
2023-03-27T04:39:12.850Z,100558.13
2023-03-27T04:41:39.218Z,100567.00
2023-03-27T04:44:05.560Z,100573.69
2023-03-27T04:46:31.963Z,100567.91
2023-03-27T04:48:58.446Z,100573.69
2023-03-27T04:51:24.815Z,100574.47
2023-03-27T04:53:52.901Z,100575.84
2023-03-27T04:56:19.434Z,100585.22
2023-03-27T04:58:45.817Z,100584.69
2023-03-27T05:01:12.358Z,100585.78
2023-03-27T05:03:38.945Z,100583.91
2023-03-27T05:06:06.222Z,100587.63
2023-03-27T05:08:32.778Z,100589.44
2023-03-27T05:11:00.608Z,100599.31
2023-03-27T05:13:26.978Z,100594.06
2023-03-27T05:15:53.345Z,100599.34
2023-03-27T05:18:19.711Z,100598.56
2023-03-27T05:20:46.049Z,100603.19
2023-03-27T05:23:12.414Z,100612.69
2023-03-27T05:25:38.776Z,100611.31
2023-03-27T05:28:06.454Z,100618.25
2023-03-27T05:30:32.899Z,100612.31
2023-03-27T05:32:59.646Z,100623.22
2023-03-27T05:35:26.796Z,100625.53
2023-03-27T05:37:54.673Z,100641.28
2023-03-27T05:40:23.668Z,100634.97
2023-03-27T05:42:50.951Z,100643.03
2023-03-27T05:45:19.746Z,100645.44
2023-03-27T05:47:47.747Z,100649.50
2023-03-27T05:50:14.642Z,100644.91
2023-03-27T05:52:41.116Z,100638.78
2023-03-27T05:55:08.624Z,100637.66
2023-03-27T05:57:37.329Z,100648.00
2023-03-27T06:00:04.731Z,100646.94
2023-03-27T06:02:32.621Z,100652.44
2023-03-27T06:04:59.197Z,100656.50
2023-03-27T06:07:25.634Z,100668.16
2023-03-27T06:09:52.010Z,100670.53
2023-03-27T06:12:18.370Z,100664.94
2023-03-27T06:14:44.754Z,100666.84
2023-03-27T06:17:11.142Z,100666.19
2023-03-27T06:19:38.945Z,100672.25
2023-03-27T06:22:05.284Z,100671.53
2023-03-27T06:24:31.666Z,100673.63
2023-03-27T06:26:58.008Z,100674.66
2023-03-27T06:29:24.355Z,100687.16
2023-03-27T06:31:50.760Z,100691.88
2023-03-27T06:34:17.102Z,100692.72
2023-03-27T06:36:44.780Z,100698.44
2023-03-27T06:39:11.466Z,100697.69
2023-03-27T06:41:37.896Z,100697.63
2023-03-27T06:44:04.920Z,100707.19
2023-03-27T06:46:42.806Z,100710.50
2023-03-27T06:49:11.689Z,100711.91
2023-03-27T06:51:38.091Z,100714.72
2023-03-27T06:54:06.040Z,100723.72
2023-03-27T06:56:32.499Z,100724.00
2023-03-27T06:58:59.040Z,100726.38
2023-03-27T07:01:25.424Z,100728.81
2023-03-27T07:03:51.797Z,100733.63
2023-03-27T07:06:18.703Z,100732.13
2023-03-27T07:08:47.689Z,100739.81
2023-03-27T07:11:16.863Z,100736.06
2023-03-27T07:13:43.564Z,100740.00
2023-03-27T07:16:10.813Z,100733.22
2023-03-27T07:18:37.337Z,100742.34
2023-03-27T07:21:04.003Z,100746.94
2023-03-27T07:23:30.447Z,100751.00
2023-03-27T07:25:57.954Z,100752.16
2023-03-27T07:28:25.810Z,100761.06
2023-03-27T07:30:52.242Z,100757.13
2023-03-27T07:33:19.187Z,100761.00
2023-03-27T07:35:47.627Z,100762.72
2023-03-27T07:38:14.963Z,100764.56
2023-03-27T07:40:43.101Z,100762.19
2023-03-27T07:43:09.510Z,100767.94
2023-03-27T07:45:37.681Z,100770.38
2023-03-27T07:48:05.044Z,100769.97
2023-03-27T07:50:31.412Z,100771.41
2023-03-27T07:52:57.854Z,100769.56
2023-03-27T07:55:24.246Z,100784.25
2023-03-27T07:58:00.724Z,100781.94
2023-03-27T08:00:28.538Z,100779.88
2023-03-27T08:03:04.872Z,100779.84
2023-03-27T08:05:31.329Z,100772.00
2023-03-27T08:07:57.701Z,100781.28
2023-03-27T08:10:24.233Z,100777.94
2023-03-27T08:12:50.559Z,100794.25
2023-03-27T08:15:17.224Z,100779.59
2023-03-27T08:17:43.711Z,100790.66
2023-03-27T08:20:11.630Z,100788.53
2023-03-27T08:22:38.068Z,100799.97
2023-03-27T08:25:05.954Z,100805.25
2023-03-27T08:27:32.327Z,100798.75
2023-03-27T08:29:58.886Z,100803.19
2023-03-27T08:32:25.808Z,100804.69
2023-03-27T08:34:52.198Z,100809.97
2023-03-27T08:37:20.120Z,100806.59
2023-03-27T08:39:46.562Z,100810.22
2023-03-27T08:42:17.806Z,100812.59
2023-03-27T08:44:46.251Z,100811.19
2023-03-27T08:47:16.818Z,100816.38
2023-03-27T08:49:49.319Z,100824.84
2023-03-27T08:52:20.851Z,100819.63
2023-03-27T08:54:52.374Z,100811.03
2023-03-27T08:57:20.969Z,100811.91
2023-03-27T08:59:47.585Z,100807.47
2023-03-27T09:02:23.461Z,100817.97
2023-03-27T09:04:57.806Z,100831.34
2023-03-27T09:07:31.871Z,100825.34
2023-03-27T09:10:06.677Z,100828.38
2023-03-27T09:12:43.043Z,100823.63
2023-03-27T09:15:12.400Z,100827.88
2023-03-27T09:17:44.000Z,100828.44
2023-03-27T09:20:16.687Z,100830.63
2023-03-27T09:22:45.023Z,100828.75
2023-03-27T09:25:19.782Z,100833.00
2023-03-27T09:27:48.468Z,100831.75
2023-03-27T09:30:20.921Z,100832.69
2023-03-27T09:32:49.131Z,100832.69
2023-03-27T09:35:17.364Z,100840.78
2023-03-27T09:37:44.147Z,100835.09
2023-03-27T09:40:21.714Z,100835.97
2023-03-27T09:42:49.433Z,100837.63
2023-03-27T09:45:16.723Z,100843.19
2023-03-27T09:47:50.979Z,100835.72
2023-03-27T09:50:26.271Z,100842.31
2023-03-27T09:53:07.175Z,100845.44
2023-03-27T09:55:43.975Z,100839.88
2023-03-27T09:58:14.357Z,100849.97
2023-03-27T10:00:40.844Z,100841.13
2023-03-27T10:03:14.364Z,100845.78
2023-03-27T10:05:43.982Z,100855.19
2023-03-27T10:08:35.524Z,100845.53
2023-03-27T10:11:06.505Z,100852.16
2023-03-27T10:13:32.891Z,100851.06
2023-03-27T10:16:01.190Z,100845.00
2023-03-27T10:18:30.097Z,100841.13
2023-03-27T10:20:59.098Z,100853.22
2023-03-27T10:23:27.563Z,100840.59
2023-03-27T10:25:59.800Z,100837.25
2023-03-27T10:28:29.613Z,100849.31
2023-03-27T10:31:00.723Z,100847.72
2023-03-27T10:33:31.954Z,100851.50
2023-03-27T10:35:59.680Z,100859.25
2023-03-27T10:38:26.642Z,100853.34
2023-03-27T10:40:55.221Z,100859.91
2023-03-27T10:43:31.852Z,100851.22
2023-03-27T10:46:00.489Z,100851.09
2023-03-27T10:48:42.219Z,100839.25
2023-03-27T10:51:33.102Z,100858.84
2023-03-27T10:54:15.308Z,100907.31
2023-03-27T10:56:52.275Z,100925.50
2023-03-27T10:59:34.517Z,100937.56
2023-03-27T11:02:15.117Z,100926.44
2023-03-27T11:04:46.395Z,100925.78
2023-03-27T11:07:19.339Z,100916.72
2023-03-27T11:09:56.633Z,100912.25
2023-03-27T11:12:25.036Z,100914.28
2023-03-27T11:14:58.978Z,100906.56
2023-03-27T11:17:30.094Z,100917.59
2023-03-27T11:19:59.853Z,100912.31
2023-03-27T11:22:31.195Z,100913.44
2023-03-27T11:25:03.414Z,100913.81
2023-03-27T11:27:36.168Z,100913.41
2023-03-27T11:30:24.327Z,100912.69
2023-03-27T11:33:07.420Z,100933.53
2023-03-27T11:35:38.510Z,100912.50
2023-03-27T11:38:11.880Z,100917.31
2023-03-27T11:40:41.330Z,100916.69
2023-03-27T11:43:10.056Z,100922.78
2023-03-27T11:45:44.750Z,100925.84
2023-03-27T11:48:33.270Z,100922.28
2023-03-27T11:51:03.696Z,100926.16
2023-03-27T11:53:46.811Z,100930.94
2023-03-27T11:56:21.787Z,100916.03
2023-03-27T11:59:03.763Z,100916.41
2023-03-27T12:01:37.663Z,100933.00
2023-03-27T12:04:25.284Z,100927.94
2023-03-27T12:07:04.618Z,100942.38
2023-03-27T12:09:47.070Z,100929.69
2023-03-27T12:12:31.722Z,100925.84
2023-03-27T12:15:12.743Z,100928.09
2023-03-27T12:17:52.053Z,100927.53
2023-03-27T12:20:38.345Z,100928.34
2023-03-27T12:23:22.238Z,100929.31
2023-03-27T12:26:04.896Z,100931.25
2023-03-27T12:28:48.411Z,100941.56
2023-03-27T12:31:35.697Z,100940.75
2023-03-27T12:34:11.179Z,100934.19
2023-03-27T12:36:42.553Z,100938.34
2023-03-27T12:39:17.865Z,100954.25
2023-03-27T12:41:45.049Z,100946.88
2023-03-27T12:44:13.426Z,100949.38
2023-03-27T12:46:41.601Z,100961.94
2023-03-27T12:49:48.533Z,100976.16
2023-03-27T12:52:16.356Z,100976.34
2023-03-27T12:55:05.840Z,100992.91
2023-03-27T12:57:42.122Z,100985.84
2023-03-27T13:00:20.463Z,100989.94
2023-03-27T13:03:10.530Z,100993.75
2023-03-27T13:06:15.461Z,100985.84
2023-03-27T13:09:02.729Z,100994.94
2023-03-27T13:11:42.933Z,100989.03
2023-03-27T13:14:30.150Z,100998.19
2023-03-27T13:17:14.743Z,100981.38
2023-03-27T13:19:52.291Z,100975.84
2023-03-27T13:22:38.482Z,100971.97
2023-03-27T13:25:20.078Z,100964.25
2023-03-27T13:28:09.428Z,100960.66
2023-03-27T13:30:46.580Z,100961.25
2023-03-27T13:33:23.338Z,100956.25
2023-03-27T13:35:58.722Z,100958.47
2023-03-27T13:39:00.665Z,100963.69
2023-03-27T13:41:55.074Z,100954.84
2023-03-27T13:44:26.562Z,100957.31
2023-03-27T13:46:57.689Z,100952.09
2023-03-27T13:49:44.379Z,100958.94
2023-03-27T13:52:27.274Z,100954.59
2023-03-27T13:55:25.421Z,100968.66
2023-03-27T13:58:03.836Z,100977.22
2023-03-27T14:00:49.903Z,100992.16
2023-03-27T14:03:54.604Z,101032.00
2023-03-27T14:06:45.365Z,101057.53
2023-03-27T14:09:22.802Z,101052.53
2023-03-27T14:12:07.145Z,101031.13
2023-03-27T14:14:52.599Z,101035.56
2023-03-27T14:17:43.857Z,101044.59
2023-03-27T14:20:18.496Z,101035.22
2023-03-27T14:22:50.398Z,101033.50
2023-03-27T14:25:18.980Z,101035.09
2023-03-27T14:27:49.479Z,101034.56
2023-03-27T14:30:18.755Z,101033.44
2023-03-27T14:32:46.718Z,101028.88
2023-03-27T14:35:32.017Z,101032.72
2023-03-27T14:37:59.998Z,101028.13
2023-03-27T14:40:29.966Z,101025.44
2023-03-27T14:42:59.038Z,101024.53
2023-03-27T14:45:27.087Z,101024.41
2023-03-27T14:47:58.247Z,101026.69
2023-03-27T14:50:26.861Z,101026.69
2023-03-27T14:52:54.291Z,101035.84
2023-03-27T14:55:23.933Z,101033.00
2023-03-27T14:57:52.274Z,101034.47
2023-03-27T15:00:23.028Z,101045.72
2023-03-27T15:02:51.385Z,101043.91
2023-03-27T15:05:21.397Z,101035.22
2023-03-27T15:07:48.432Z,101036.63
2023-03-27T15:10:22.102Z,101038.06
2023-03-27T15:12:48.508Z,101039.88
2023-03-27T15:15:30.276Z,101042.25
2023-03-27T15:17:56.855Z,101036.56
2023-03-27T15:20:28.006Z,101037.94
2023-03-27T15:22:59.338Z,101048.22
2023-03-27T15:25:34.440Z,101048.25
2023-03-27T15:28:06.705Z,101048.25
2023-03-27T15:30:36.531Z,101049.88
2023-03-27T15:33:05.316Z,101047.03
2023-03-27T15:35:35.943Z,101047.94
2023-03-27T15:38:03.948Z,101036.84
2023-03-27T15:40:32.865Z,101048.53
2023-03-27T15:43:04.226Z,101034.41
2023-03-27T15:45:38.882Z,101044.41
2023-03-27T15:48:17.362Z,101044.94
2023-03-27T15:50:55.975Z,101054.03
2023-03-27T15:53:34.011Z,101042.69
2023-03-27T15:56:03.154Z,101047.69
2023-03-27T15:58:39.620Z,101036.63
2023-03-27T16:01:18.262Z,101047.31
2023-03-27T16:03:46.698Z,101039.16
2023-03-27T16:06:24.947Z,101043.75
2023-03-27T16:08:51.424Z,101044.28
2023-03-27T16:11:33.445Z,101054.56
2023-03-27T16:14:00.181Z,101052.09
2023-03-27T16:16:28.770Z,101063.13
2023-03-27T16:18:58.708Z,101063.16
2023-03-27T16:21:27.651Z,101083.75
2023-03-27T16:23:54.493Z,101080.63
2023-03-27T16:26:24.910Z,101086.84
2023-03-27T16:28:51.413Z,101090.59
2023-03-27T16:31:19.428Z,101083.50
2023-03-27T16:33:46.415Z,101083.72
2023-03-27T16:36:14.830Z,101089.09
2023-03-27T16:38:42.851Z,101085.13
2023-03-27T16:41:12.693Z,101082.47
2023-03-27T16:43:39.078Z,101082.53
2023-03-27T16:46:05.951Z,101092.13
2023-03-27T16:48:32.623Z,101079.84
2023-03-27T16:50:59.004Z,101079.69
2023-03-27T16:53:25.428Z,101084.19
2023-03-27T16:55:53.291Z,101086.16
2023-03-27T16:58:19.669Z,101093.59
2023-03-27T17:00:46.317Z,101097.03
2023-03-27T17:03:12.870Z,101094.78
2023-03-27T17:05:39.588Z,101100.78
2023-03-27T17:08:07.399Z,101101.59
2023-03-27T17:10:34.379Z,101111.16
2023-03-27T17:13:02.326Z,101119.88
2023-03-27T17:15:28.782Z,101114.31
2023-03-27T17:17:55.209Z,101125.28
2023-03-27T17:20:21.569Z,101135.38
2023-03-27T17:22:47.973Z,101143.69
2023-03-27T17:25:14.413Z,101140.22
2023-03-27T17:27:40.814Z,101146.72
2023-03-27T17:30:09.713Z,101154.50
2023-03-27T17:32:36.269Z,101153.50
2023-03-27T17:35:02.744Z,101163.25
2023-03-27T17:37:29.102Z,101162.41
2023-03-27T17:39:55.649Z,101171.16
2023-03-27T17:42:22.581Z,101175.69
2023-03-27T17:44:48.950Z,101178.41
2023-03-27T17:47:16.704Z,101174.53
2023-03-27T17:49:43.175Z,101176.25
2023-03-27T17:52:09.626Z,101182.06
2023-03-27T17:54:36.164Z,101184.56
2023-03-27T17:57:02.935Z,101173.41
2023-03-27T17:59:29.952Z,101187.44
2023-03-27T18:01:56.427Z,101184.13
2023-03-27T18:04:24.509Z,101196.19
2023-03-27T18:06:51.415Z,101202.22
2023-03-27T18:09:17.782Z,101206.38
2023-03-27T18:11:44.139Z,101202.91
2023-03-27T18:14:10.517Z,101212.34
2023-03-27T18:16:36.933Z,101215.28
2023-03-27T18:19:03.912Z,101225.19
2023-03-27T18:21:31.598Z,101232.06
2023-03-27T18:23:58.015Z,101232.97
2023-03-27T18:26:24.741Z,101231.50
2023-03-27T18:28:51.274Z,101239.81
2023-03-27T18:31:18.220Z,101234.59
2023-03-27T18:33:44.799Z,101229.13
2023-03-27T18:36:11.408Z,101232.88
2023-03-27T18:38:40.541Z,101239.19
2023-03-27T18:41:07.175Z,101240.00
2023-03-27T18:43:33.579Z,101244.75
2023-03-27T18:46:02.304Z,101238.22
2023-03-27T18:48:29.355Z,101244.28
2023-03-27T18:50:56.837Z,101244.63
2023-03-27T18:53:23.780Z,101236.41
2023-03-27T18:55:52.532Z,101237.28
2023-03-27T18:58:20.136Z,101231.91
2023-03-27T19:00:46.724Z,101236.91
2023-03-27T19:03:14.711Z,101240.72
2023-03-27T19:05:41.152Z,101249.59
2023-03-27T19:08:07.575Z,101246.91
2023-03-27T19:10:34.409Z,101242.88
2023-03-27T19:13:02.189Z,101241.38
2023-03-27T19:15:28.921Z,101241.94
2023-03-27T19:17:55.538Z,101246.59
2023-03-27T19:20:22.426Z,101242.75
2023-03-27T19:22:48.921Z,101238.56
2023-03-27T19:25:15.641Z,101242.63
2023-03-27T19:27:42.214Z,101238.84
2023-03-27T19:30:13.615Z,101238.72
2023-03-27T19:32:40.446Z,101236.31
2023-03-27T19:35:07.419Z,101238.56
2023-03-27T19:37:33.825Z,101243.34
2023-03-27T19:40:00.286Z,101253.91
2023-03-27T19:42:27.070Z,101251.13
2023-03-27T19:44:53.573Z,101247.53
2023-03-27T19:47:21.748Z,101247.19
2023-03-27T19:49:48.525Z,101252.31
2023-03-27T19:52:14.906Z,101258.78
2023-03-27T19:54:41.238Z,101260.97
2023-03-27T19:57:07.664Z,101253.53
2023-03-27T19:59:34.485Z,101268.22
2023-03-27T20:02:00.884Z,101260.69
2023-03-27T20:04:28.591Z,101258.53
2023-03-27T20:06:55.003Z,101257.69
2023-03-27T20:09:21.356Z,101267.44
2023-03-27T20:11:47.844Z,101259.78
2023-03-27T20:14:14.196Z,101262.78
2023-03-27T20:16:40.641Z,101264.78
2023-03-27T20:19:07.786Z,101268.69
2023-03-27T20:21:37.847Z,101261.88
2023-03-27T20:24:05.145Z,101265.28
2023-03-27T20:26:31.884Z,101263.88
2023-03-27T20:28:58.249Z,101261.03
2023-03-27T20:31:24.650Z,101265.09
2023-03-27T20:33:51.067Z,101264.88
2023-03-27T20:36:17.449Z,101264.69
2023-03-27T20:38:45.188Z,101272.13
2023-03-27T20:41:11.616Z,101267.06
2023-03-27T20:43:37.991Z,101274.53
2023-03-27T20:46:04.734Z,101270.44
2023-03-27T20:48:31.398Z,101267.84
2023-03-27T20:50:58.134Z,101266.44
2023-03-27T20:53:26.018Z,101261.06
2023-03-27T20:56:00.112Z,101272.53
2023-03-27T20:58:27.400Z,101265.91
2023-03-27T21:00:54.707Z,101274.34
2023-03-27T21:03:21.975Z,101263.69
2023-03-27T21:05:48.736Z,101259.78
2023-03-27T21:08:15.488Z,101266.88
2023-03-27T21:10:42.229Z,101272.22
2023-03-27T21:13:09.902Z,101271.59
2023-03-27T21:15:36.274Z,101263.81
2023-03-27T21:18:02.823Z,101271.84
2023-03-27T21:20:29.349Z,101268.47
2023-03-27T21:22:55.751Z,101274.78
2023-03-27T21:25:22.318Z,101271.50
2023-03-27T21:27:48.941Z,101278.63
2023-03-27T21:30:16.762Z,101273.31
2023-03-27T21:32:43.209Z,101276.06
2023-03-27T21:35:10.070Z,101282.03
2023-03-27T21:37:36.442Z,101290.75
2023-03-27T21:40:03.079Z,101287.94
2023-03-27T21:42:29.803Z,101288.34
2023-03-27T21:44:57.319Z,101290.34
2023-03-27T21:47:34.394Z,101285.50
2023-03-27T21:50:08.494Z,101284.56
2023-03-27T21:52:34.882Z,101283.44
2023-03-27T21:55:03.190Z,101292.91
2023-03-27T21:57:30.093Z,101274.75
2023-03-27T21:59:56.625Z,101279.47
2023-03-27T22:02:23.049Z,101290.97
2023-03-27T22:04:50.796Z,101297.50
2023-03-27T22:07:17.482Z,101292.88
2023-03-27T22:09:44.541Z,101289.28
2023-03-27T22:12:11.125Z,101311.97
2023-03-27T22:14:37.594Z,101296.03
2023-03-27T22:17:04.645Z,101295.88
2023-03-27T22:19:31.189Z,101305.53
2023-03-27T22:21:58.959Z,101316.00
2023-03-27T22:24:25.314Z,101323.34
2023-03-27T22:26:51.692Z,101321.44
2023-03-27T22:29:18.135Z,101319.69
2023-03-27T22:31:44.677Z,101316.88
2023-03-27T22:34:11.101Z,101318.94
2023-03-27T22:36:37.520Z,101317.31
2023-03-27T22:39:05.522Z,101319.69
2023-03-27T22:41:31.874Z,101321.25
2023-03-27T22:43:59.761Z,101323.63
2023-03-27T22:46:26.166Z,101328.66
2023-03-27T22:48:55.728Z,101324.09
2023-03-27T22:51:22.804Z,101340.59
2023-03-27T22:53:49.267Z,101336.66
2023-03-27T22:56:17.136Z,101334.53
2023-03-27T22:58:43.670Z,101336.97
2023-03-27T23:01:10.404Z,101335.81
2023-03-27T23:03:36.992Z,101337.91
2023-03-27T23:06:04.041Z,101344.06
2023-03-27T23:08:31.905Z,101341.75
2023-03-27T23:10:59.932Z,101346.56
2023-03-27T23:13:29.865Z,101345.66
2023-03-27T23:15:56.301Z,101338.56
2023-03-27T23:18:23.332Z,101344.81
2023-03-27T23:20:53.500Z,101350.97
2023-03-27T23:23:19.869Z,101349.63
2023-03-27T23:25:46.220Z,101347.88
2023-03-27T23:28:12.805Z,101362.63
2023-03-27T23:30:40.516Z,101360.25
2023-03-27T23:33:06.928Z,101359.41
2023-03-27T23:35:33.343Z,101358.25
2023-03-27T23:37:59.775Z,101365.44
2023-03-27T23:40:26.221Z,101368.50
2023-03-27T23:42:52.673Z,101361.09
2023-03-27T23:45:19.639Z,101371.69
2023-03-27T23:47:47.371Z,101377.75
2023-03-27T23:50:13.768Z,101377.19
2023-03-27T23:52:40.144Z,101378.22
2023-03-27T23:55:07.171Z,101400.88
2023-03-27T23:57:33.530Z,101400.91
2023-03-27T23:59:59.872Z,101391.66
